sensor_id;sensor_type;location;lat;lon;timestamp;temperature;humidity
38221;DHT22;24023;51.280;7.148;2023-02-01T00:00:12;6.4;80.8
38221;DHT22;24023;51.280;7.148;2023-02-01T00:05:07;6.4;80.8
38221;DHT22;24023;51.280;7.148;2023-02-01T00:10:09;6.3;81.5
38221;DHT22;24023;51.280;7.148;2023-02-01T00:15:15;6.3;81.5
38221;DHT22;24023;51.280;7.148;2023-02-01T00:20:10;6.2;80.2
38221;DHT22;24023;51.280;7.148;2023-02-01T00:25:07;6.2;80.2
38221;DHT22;24023;51.280;7.148;2023-02-01T00:30:10;6.3;77.8
38221;DHT22;24023;51.280;7.148;2023-02-01T00:35:09;6.3;77.8
38221;DHT22;24023;51.280;7.148;2023-02-01T00:40:09;6.1;79.9
38221;DHT22;24023;51.280;7.148;2023-02-01T00:45:10;6.1;79.9
38221;DHT22;24023;51.280;7.148;2023-02-01T00:50:09;6.3;79.1
38221;DHT22;24023;51.280;7.148;2023-02-01T00:55:07;6.3;79.1
38221;DHT22;24023;51.280;7.148;2023-02-01T01:00:11;6.2;79.4
38221;DHT22;24023;51.280;7.148;2023-02-01T01:05:07;6.2;79.4
38221;DHT22;24023;51.280;7.148;2023-02-01T01:10:09;6.0;80.9
38221;DHT22;24023;51.280;7.148;2023-02-01T01:15:09;6.0;80.9
38221;DHT22;24023;51.280;7.148;2023-02-01T01:20:09;6.0;80.9
38221;DHT22;24023;51.280;7.148;2023-02-01T01:25:06;6.2;82.0
38221;DHT22;24023;51.280;7.148;2023-02-01T01:30:15;6.2;82.0
38221;DHT22;24023;51.280;7.148;2023-02-01T01:35:08;6.4;81.7
38221;DHT22;24023;51.280;7.148;2023-02-01T01:40:10;6.4;81.7
38221;DHT22;24023;51.280;7.148;2023-02-01T01:45:21;6.4;81.7
38221;DHT22;24023;51.280;7.148;2023-02-01T01:50:11;6.2;81.4
38221;DHT22;24023;51.280;7.148;2023-02-01T01:55:07;6.2;81.4
38221;DHT22;24023;51.280;7.148;2023-02-01T02:00:13;6.2;79.7
38221;DHT22;24023;51.280;7.148;2023-02-01T02:05:08;6.2;79.7
38221;DHT22;24023;51.280;7.148;2023-02-01T02:10:12;6.0;78.5
38221;DHT22;24023;51.280;7.148;2023-02-01T02:15:10;6.0;78.5
38221;DHT22;24023;51.280;7.148;2023-02-01T02:20:55;6.0;76.9
38221;DHT22;24023;51.280;7.148;2023-02-01T02:25:31;6.0;76.9
38221;DHT22;24023;51.280;7.148;2023-02-01T02:30:29;5.9;75.5
38221;DHT22;24023;51.280;7.148;2023-02-01T02:35:10;5.9;75.5
38221;DHT22;24023;51.280;7.148;2023-02-01T02:40:15;5.8;75.4
38221;DHT22;24023;51.280;7.148;2023-02-01T02:55:07;5.9;74.3
38221;DHT22;24023;51.280;7.148;2023-02-01T03:05:07;5.8;74.9
38221;DHT22;24023;51.280;7.148;2023-02-01T03:10:14;5.8;74.9
38221;DHT22;24023;51.280;7.148;2023-02-01T03:15:10;5.8;74.9
38221;DHT22;24023;51.280;7.148;2023-02-01T03:20:09;5.7;73.4
38221;DHT22;24023;51.280;7.148;2023-02-01T03:25:11;5.7;73.4
38221;DHT22;24023;51.280;7.148;2023-02-01T03:30:16;5.7;74.8
38221;DHT22;24023;51.280;7.148;2023-02-01T03:35:07;5.7;74.8
38221;DHT22;24023;51.280;7.148;2023-02-01T03:40:10;5.6;74.3
38221;DHT22;24023;51.280;7.148;2023-02-01T03:45:13;5.6;74.3
38221;DHT22;24023;51.280;7.148;2023-02-01T03:50:11;5.6;74.3
38221;DHT22;24023;51.280;7.148;2023-02-01T03:55:07;5.8;74.5
38221;DHT22;24023;51.280;7.148;2023-02-01T04:00:18;5.8;75.1
38221;DHT22;24023;51.280;7.148;2023-02-01T04:05:07;5.8;75.1
38221;DHT22;24023;51.280;7.148;2023-02-01T04:10:09;5.9;75.7
38221;DHT22;24023;51.280;7.148;2023-02-01T04:15:08;5.9;75.7
38221;DHT22;24023;51.280;7.148;2023-02-01T04:20:09;5.9;75.7
38221;DHT22;24023;51.280;7.148;2023-02-01T04:25:07;5.9;74.1
38221;DHT22;24023;51.280;7.148;2023-02-01T04:30:11;5.9;74.1
38221;DHT22;24023;51.280;7.148;2023-02-01T04:35:07;5.9;74.7
38221;DHT22;24023;51.280;7.148;2023-02-01T04:40:09;5.9;74.7
38221;DHT22;24023;51.280;7.148;2023-02-01T04:45:10;5.9;74.7
38221;DHT22;24023;51.280;7.148;2023-02-01T04:50:10;5.9;74.9
38221;DHT22;24023;51.280;7.148;2023-02-01T04:55:07;5.9;74.9
38221;DHT22;24023;51.280;7.148;2023-02-01T05:00:12;6.0;74.7
38221;DHT22;24023;51.280;7.148;2023-02-01T05:05:07;6.0;74.7
38221;DHT22;24023;51.280;7.148;2023-02-01T05:10:09;5.8;74.9
38221;DHT22;24023;51.280;7.148;2023-02-01T05:15:07;5.8;74.9
38221;DHT22;24023;51.280;7.148;2023-02-01T05:20:09;6.0;75.3
38221;DHT22;24023;51.280;7.148;2023-02-01T05:25:08;6.0;75.3
38221;DHT22;24023;51.280;7.148;2023-02-01T05:30:10;6.0;74.9
38221;DHT22;24023;51.280;7.148;2023-02-01T05:35:07;6.0;74.9
38221;DHT22;24023;51.280;7.148;2023-02-01T05:40:09;5.9;75.6
38221;DHT22;24023;51.280;7.148;2023-02-01T05:45:10;5.9;75.6
38221;DHT22;24023;51.280;7.148;2023-02-01T05:50:09;5.8;76.8
38221;DHT22;24023;51.280;7.148;2023-02-01T05:55:07;5.8;76.8
38221;DHT22;24023;51.280;7.148;2023-02-01T06:00:12;5.8;75.4
38221;DHT22;24023;51.280;7.148;2023-02-01T06:05:07;5.8;75.4
38221;DHT22;24023;51.280;7.148;2023-02-01T06:10:09;5.8;76.4
38221;DHT22;24023;51.280;7.148;2023-02-01T06:15:09;5.8;76.4
38221;DHT22;24023;51.280;7.148;2023-02-01T06:20:09;5.7;75.9
38221;DHT22;24023;51.280;7.148;2023-02-01T06:25:09;5.7;75.9
38221;DHT22;24023;51.280;7.148;2023-02-01T06:30:11;5.7;76.2
38221;DHT22;24023;51.280;7.148;2023-02-01T06:35:07;5.7;76.2
38221;DHT22;24023;51.280;7.148;2023-02-01T06:40:10;5.8;75.8
38221;DHT22;24023;51.280;7.148;2023-02-01T06:45:10;5.8;75.8
38221;DHT22;24023;51.280;7.148;2023-02-01T06:50:09;5.9;75.6
38221;DHT22;24023;51.280;7.148;2023-02-01T06:55:07;5.9;75.6
38221;DHT22;24023;51.280;7.148;2023-02-01T07:00:12;5.9;75.6
38221;DHT22;24023;51.280;7.148;2023-02-01T07:05:07;5.9;75.8
38221;DHT22;24023;51.280;7.148;2023-02-01T07:10:09;5.9;75.3
38221;DHT22;24023;51.280;7.148;2023-02-01T07:15:08;5.9;75.3
38221;DHT22;24023;51.280;7.148;2023-02-01T07:20:09;6.0;75.4
38221;DHT22;24023;51.280;7.148;2023-02-01T07:25:07;6.0;75.4
38221;DHT22;24023;51.280;7.148;2023-02-01T07:30:13;6.0;74.7
38221;DHT22;24023;51.280;7.148;2023-02-01T07:35:07;6.0;74.7
38221;DHT22;24023;51.280;7.148;2023-02-01T07:40:09;5.9;75.2
38221;DHT22;24023;51.280;7.148;2023-02-01T07:45:10;5.9;75.2
38221;DHT22;24023;51.280;7.148;2023-02-01T07:50:08;5.9;75.7
38221;DHT22;24023;51.280;7.148;2023-02-01T07:55:07;5.9;75.7
38221;DHT22;24023;51.280;7.148;2023-02-01T08:05:07;6.0;76.1
38221;DHT22;24023;51.280;7.148;2023-02-01T08:10:11;6.1;75.8
38221;DHT22;24023;51.280;7.148;2023-02-01T08:15:08;6.1;75.8
38221;DHT22;24023;51.280;7.148;2023-02-01T08:20:10;6.0;75.7
38221;DHT22;24023;51.280;7.148;2023-02-01T08:25:07;6.0;75.7
38221;DHT22;24023;51.280;7.148;2023-02-01T08:30:14;6.1;75.6
38221;DHT22;24023;51.280;7.148;2023-02-01T08:35:08;6.1;75.6
38221;DHT22;24023;51.280;7.148;2023-02-01T08:40:09;6.0;76.2
38221;DHT22;24023;51.280;7.148;2023-02-01T08:45:10;6.0;76.2
38221;DHT22;24023;51.280;7.148;2023-02-01T08:50:10;6.0;76.2
38221;DHT22;24023;51.280;7.148;2023-02-01T08:55:07;6.0;75.7
38221;DHT22;24023;51.280;7.148;2023-02-01T09:00:13;6.0;75.7
38221;DHT22;24023;51.280;7.148;2023-02-01T09:05:07;6.1;75.6
38221;DHT22;24023;51.280;7.148;2023-02-01T09:10:09;6.2;76.1
38221;DHT22;24023;51.280;7.148;2023-02-01T09:15:09;6.2;76.1
38221;DHT22;24023;51.280;7.148;2023-02-01T09:20:10;6.3;75.2
38221;DHT22;24023;51.280;7.148;2023-02-01T09:25:07;6.3;75.2
38221;DHT22;24023;51.280;7.148;2023-02-01T09:30:10;6.3;75.2
38221;DHT22;24023;51.280;7.148;2023-02-01T09:35:08;6.2;75.3
38221;DHT22;24023;51.280;7.148;2023-02-01T09:40:12;6.3;75.0
38221;DHT22;24023;51.280;7.148;2023-02-01T09:45:17;6.3;75.0
38221;DHT22;24023;51.280;7.148;2023-02-01T09:50:13;6.4;74.4
38221;DHT22;24023;51.280;7.148;2023-02-01T09:55:11;6.4;74.4
38221;DHT22;24023;51.280;7.148;2023-02-01T10:00:18;6.2;74.3
38221;DHT22;24023;51.280;7.148;2023-02-01T10:05:13;6.2;74.3
38221;DHT22;24023;51.280;7.148;2023-02-01T10:10:12;6.3;75.0
38221;DHT22;24023;51.280;7.148;2023-02-01T10:15:18;6.3;75.0
38221;DHT22;24023;51.280;7.148;2023-02-01T10:20:14;6.3;75.0
38221;DHT22;24023;51.280;7.148;2023-02-01T10:25:14;6.4;74.8
38221;DHT22;24023;51.280;7.148;2023-02-01T10:30:18;6.4;74.8
38221;DHT22;24023;51.280;7.148;2023-02-01T10:35:12;6.4;74.0
38221;DHT22;24023;51.280;7.148;2023-02-01T10:40:16;6.4;74.0
38221;DHT22;24023;51.280;7.148;2023-02-01T10:45:16;6.4;74.9
38221;DHT22;24023;51.280;7.148;2023-02-01T10:50:18;6.4;74.9
38221;DHT22;24023;51.280;7.148;2023-02-01T10:55:40;6.4;74.9
38221;DHT22;24023;51.280;7.148;2023-02-01T11:00:19;6.4;75.6
38221;DHT22;24023;51.280;7.148;2023-02-01T11:05:08;6.4;75.6
38221;DHT22;24023;51.280;7.148;2023-02-01T11:10:34;6.3;74.8
38221;DHT22;24023;51.280;7.148;2023-02-01T11:15:20;6.3;74.8
38221;DHT22;24023;51.280;7.148;2023-02-01T11:20:14;6.4;74.8
38221;DHT22;24023;51.280;7.148;2023-02-01T11:25:09;6.4;74.8
38221;DHT22;24023;51.280;7.148;2023-02-01T11:30:15;6.6;73.8
38221;DHT22;24023;51.280;7.148;2023-02-01T11:35:07;6.6;73.8
38221;DHT22;24023;51.280;7.148;2023-02-01T11:40:26;6.7;73.0
38221;DHT22;24023;51.280;7.148;2023-02-01T11:45:20;6.7;73.0
38221;DHT22;24023;51.280;7.148;2023-02-01T11:50:15;6.8;71.7
38221;DHT22;24023;51.280;7.148;2023-02-01T11:55:19;6.8;71.7
38221;DHT22;24023;51.280;7.148;2023-02-01T12:00:39;6.8;71.7
38221;DHT22;24023;51.280;7.148;2023-02-01T12:05:20;6.7;72.1
38221;DHT22;24023;51.280;7.148;2023-02-01T12:10:21;6.7;72.1
38221;DHT22;24023;51.280;7.148;2023-02-01T12:15:21;6.6;74.1
38221;DHT22;24023;51.280;7.148;2023-02-01T12:20:19;6.6;74.1
38221;DHT22;24023;51.280;7.148;2023-02-01T12:25:17;6.6;74.7
38221;DHT22;24023;51.280;7.148;2023-02-01T12:30:26;6.6;74.7
38221;DHT22;24023;51.280;7.148;2023-02-01T12:35:25;6.6;74.7
38221;DHT22;24023;51.280;7.148;2023-02-01T12:40:17;6.8;73.1
38221;DHT22;24023;51.280;7.148;2023-02-01T12:45:14;6.8;73.1
38221;DHT22;24023;51.280;7.148;2023-02-01T12:50:16;6.9;73.6
38221;DHT22;24023;51.280;7.148;2023-02-01T12:55:15;6.9;73.6
38221;DHT22;24023;51.280;7.148;2023-02-01T13:00:22;6.9;73.6
38221;DHT22;24023;51.280;7.148;2023-02-01T13:05:14;6.8;73.0
38221;DHT22;24023;51.280;7.148;2023-02-01T13:10:15;6.8;72.8
38221;DHT22;24023;51.280;7.148;2023-02-01T13:15:14;6.8;72.8
38221;DHT22;24023;51.280;7.148;2023-02-01T13:20:19;6.7;73.6
38221;DHT22;24023;51.280;7.148;2023-02-01T13:25:12;6.7;73.6
38221;DHT22;24023;51.280;7.148;2023-02-01T13:30:16;7.0;74.3
38221;DHT22;24023;51.280;7.148;2023-02-01T13:35:21;7.0;74.3
38221;DHT22;24023;51.280;7.148;2023-02-01T13:40:22;6.9;75.4
38221;DHT22;24023;51.280;7.148;2023-02-01T13:45:15;6.8;77.7
38221;DHT22;24023;51.280;7.148;2023-02-01T13:50:13;6.6;77.6
38221;DHT22;24023;51.280;7.148;2023-02-01T13:55:29;6.6;77.6
38221;DHT22;24023;51.280;7.148;2023-02-01T14:00:25;6.7;78.0
38221;DHT22;24023;51.280;7.148;2023-02-01T14:05:08;6.7;78.0
38221;DHT22;24023;51.280;7.148;2023-02-01T14:10:46;6.7;78.0
38221;DHT22;24023;51.280;7.148;2023-02-01T14:15:25;6.6;79.8
38221;DHT22;24023;51.280;7.148;2023-02-01T14:20:41;6.5;79.0
38221;DHT22;24023;51.280;7.148;2023-02-01T14:25:16;6.5;79.0
38221;DHT22;24023;51.280;7.148;2023-02-01T14:30:15;6.7;78.2
38221;DHT22;24023;51.280;7.148;2023-02-01T14:35:16;6.7;78.2
38221;DHT22;24023;51.280;7.148;2023-02-01T14:40:16;6.8;76.1
38221;DHT22;24023;51.280;7.148;2023-02-01T14:46:13;6.8;76.1
38221;DHT22;24023;51.280;7.148;2023-02-01T14:50:17;7.0;74.0
38221;DHT22;24023;51.280;7.148;2023-02-01T14:55:11;7.0;74.0
38221;DHT22;24023;51.280;7.148;2023-02-01T15:00:19;7.0;74.3
38221;DHT22;24023;51.280;7.148;2023-02-01T15:05:23;7.0;74.3
38221;DHT22;24023;51.280;7.148;2023-02-01T15:10:09;7.0;73.7
38221;DHT22;24023;51.280;7.148;2023-02-01T15:15:13;7.0;73.7
38221;DHT22;24023;51.280;7.148;2023-02-01T15:20:14;7.3;75.4
38221;DHT22;24023;51.280;7.148;2023-02-01T15:25:19;7.1;73.1
38221;DHT22;24023;51.280;7.148;2023-02-01T15:30:17;7.0;73.0
38221;DHT22;24023;51.280;7.148;2023-02-01T15:35:31;7.0;73.0
38221;DHT22;24023;51.280;7.148;2023-02-01T15:40:20;7.2;74.4
38221;DHT22;24023;51.280;7.148;2023-02-01T15:45:17;7.2;74.4
38221;DHT22;24023;51.280;7.148;2023-02-01T15:55:17;7.2;73.4
38221;DHT22;24023;51.280;7.148;2023-02-01T16:00:22;7.2;73.4
38221;DHT22;24023;51.280;7.148;2023-02-01T16:05:28;7.2;73.3
38221;DHT22;24023;51.280;7.148;2023-02-01T16:10:23;7.2;73.3
38221;DHT22;24023;51.280;7.148;2023-02-01T16:15:08;7.3;73.9
38221;DHT22;24023;51.280;7.148;2023-02-01T16:20:10;7.2;73.7
38221;DHT22;24023;51.280;7.148;2023-02-01T16:25:07;7.2;73.7
38221;DHT22;24023;51.280;7.148;2023-02-01T16:30:10;7.3;74.3
38221;DHT22;24023;51.280;7.148;2023-02-01T16:35:13;7.3;74.1
38221;DHT22;24023;51.280;7.148;2023-02-01T16:40:13;7.2;76.2
38221;DHT22;24023;51.280;7.148;2023-02-01T16:45:10;7.2;76.2
38221;DHT22;24023;51.280;7.148;2023-02-01T16:50:15;7.2;76.2
38221;DHT22;24023;51.280;7.148;2023-02-01T16:55:09;7.1;76.3
38221;DHT22;24023;51.280;7.148;2023-02-01T17:00:13;7.1;76.3
38221;DHT22;24023;51.280;7.148;2023-02-01T17:05:07;7.0;75.8
38221;DHT22;24023;51.280;7.148;2023-02-01T17:10:21;7.0;76.1
38221;DHT22;24023;51.280;7.148;2023-02-01T17:15:10;7.0;76.1
38221;DHT22;24023;51.280;7.148;2023-02-01T17:20:17;7.2;75.3
38221;DHT22;24023;51.280;7.148;2023-02-01T17:25:13;7.2;75.3
38221;DHT22;24023;51.280;7.148;2023-02-01T17:30:11;7.3;74.5
38221;DHT22;24023;51.280;7.148;2023-02-01T17:40:11;7.3;74.5
38221;DHT22;24023;51.280;7.148;2023-02-01T17:45:20;7.3;74.1
38221;DHT22;24023;51.280;7.148;2023-02-01T17:50:09;7.2;74.3
38221;DHT22;24023;51.280;7.148;2023-02-01T18:00:14;7.3;74.5
38221;DHT22;24023;51.280;7.148;2023-02-01T18:05:13;7.3;74.5
38221;DHT22;24023;51.280;7.148;2023-02-01T18:10:09;7.3;74.6
38221;DHT22;24023;51.280;7.148;2023-02-01T18:15:14;7.3;74.6
38221;DHT22;24023;51.280;7.148;2023-02-01T18:20:12;7.3;74.6
38221;DHT22;24023;51.280;7.148;2023-02-01T18:25:14;7.3;75.7
38221;DHT22;24023;51.280;7.148;2023-02-01T18:30:11;7.3;75.7
38221;DHT22;24023;51.280;7.148;2023-02-01T18:35:15;7.2;74.4
38221;DHT22;24023;51.280;7.148;2023-02-01T18:40:13;7.2;74.4
38221;DHT22;24023;51.280;7.148;2023-02-01T18:45:29;7.2;74.4
38221;DHT22;24023;51.280;7.148;2023-02-01T18:50:10;7.2;74.5
38221;DHT22;24023;51.280;7.148;2023-02-01T18:55:08;7.2;74.5
38221;DHT22;24023;51.280;7.148;2023-02-01T19:00:11;7.2;75.5
38221;DHT22;24023;51.280;7.148;2023-02-01T19:05:09;7.2;75.5
38221;DHT22;24023;51.280;7.148;2023-02-01T19:10:11;7.3;74.6
38221;DHT22;24023;51.280;7.148;2023-02-01T19:15:09;7.3;74.6
38221;DHT22;24023;51.280;7.148;2023-02-01T19:20:11;7.4;73.9
38221;DHT22;24023;51.280;7.148;2023-02-01T19:25:08;7.4;73.9
38221;DHT22;24023;51.280;7.148;2023-02-01T19:30:11;7.4;74.1
38221;DHT22;24023;51.280;7.148;2023-02-01T19:35:08;7.4;74.1
38221;DHT22;24023;51.280;7.148;2023-02-01T19:40:09;7.4;74.4
38221;DHT22;24023;51.280;7.148;2023-02-01T19:45:11;7.4;74.4
38221;DHT22;24023;51.280;7.148;2023-02-01T19:50:14;7.4;74.3
38221;DHT22;24023;51.280;7.148;2023-02-01T19:55:07;7.4;76.5
38221;DHT22;24023;51.280;7.148;2023-02-01T20:00:13;7.3;78.6
38221;DHT22;24023;51.280;7.148;2023-02-01T20:05:08;7.3;78.6
38221;DHT22;24023;51.280;7.148;2023-02-01T20:10:09;7.0;82.0
38221;DHT22;24023;51.280;7.148;2023-02-01T20:15:08;7.0;82.0
38221;DHT22;24023;51.280;7.148;2023-02-01T20:20:09;7.0;81.0
38221;DHT22;24023;51.280;7.148;2023-02-01T20:25:07;7.0;81.0
38221;DHT22;24023;51.280;7.148;2023-02-01T20:30:10;7.0;81.5
38221;DHT22;24023;51.280;7.148;2023-02-01T20:35:07;7.3;79.4
38221;DHT22;24023;51.280;7.148;2023-02-01T20:40:09;5.9;76.7
38221;DHT22;24023;51.280;7.148;2023-02-01T20:45:09;5.9;76.7
38221;DHT22;24023;51.280;7.148;2023-02-01T20:50:09;5.6;77.9
38221;DHT22;24023;51.280;7.148;2023-02-01T20:55:07;5.6;77.9
38221;DHT22;24023;51.280;7.148;2023-02-01T21:00:12;5.5;79.8
38221;DHT22;24023;51.280;7.148;2023-02-01T21:05:07;5.5;79.8
38221;DHT22;24023;51.280;7.148;2023-02-01T21:10:10;5.6;81.0
38221;DHT22;24023;51.280;7.148;2023-02-01T21:15:09;5.6;81.0
38221;DHT22;24023;51.280;7.148;2023-02-01T21:20:10;6.0;80.7
38221;DHT22;24023;51.280;7.148;2023-02-01T21:25:07;6.0;80.7
38221;DHT22;24023;51.280;7.148;2023-02-01T21:30:11;6.1;80.2
38221;DHT22;24023;51.280;7.148;2023-02-01T21:35:07;5.7;82.4
38221;DHT22;24023;51.280;7.148;2023-02-01T21:40:09;5.8;83.0
38221;DHT22;24023;51.280;7.148;2023-02-01T21:45:11;5.8;83.0
38221;DHT22;24023;51.280;7.148;2023-02-01T21:50:13;6.2;83.6
38221;DHT22;24023;51.280;7.148;2023-02-01T21:55:07;6.2;83.6
38221;DHT22;24023;51.280;7.148;2023-02-01T22:00:13;6.7;82.4
38221;DHT22;24023;51.280;7.148;2023-02-01T22:05:07;6.7;82.4
38221;DHT22;24023;51.280;7.148;2023-02-01T22:10:09;6.9;82.3
38221;DHT22;24023;51.280;7.148;2023-02-01T22:15:08;6.9;82.3
38221;DHT22;24023;51.280;7.148;2023-02-01T22:20:09;7.0;83.1
38221;DHT22;24023;51.280;7.148;2023-02-01T22:25:06;7.0;83.1
38221;DHT22;24023;51.280;7.148;2023-02-01T22:30:11;7.0;83.1
38221;DHT22;24023;51.280;7.148;2023-02-01T22:35:07;7.0;81.5
38221;DHT22;24023;51.280;7.148;2023-02-01T22:40:10;6.9;81.5
38221;DHT22;24023;51.280;7.148;2023-02-01T22:45:09;6.9;81.5
38221;DHT22;24023;51.280;7.148;2023-02-01T22:50:08;6.2;81.8
38221;DHT22;24023;51.280;7.148;2023-02-01T22:55:06;6.2;81.8
38221;DHT22;24023;51.280;7.148;2023-02-01T23:00:24;6.4;82.0
38221;DHT22;24023;51.280;7.148;2023-02-01T23:05:08;6.4;82.0
38221;DHT22;24023;51.280;7.148;2023-02-01T23:10:09;6.5;83.0
38221;DHT22;24023;51.280;7.148;2023-02-01T23:15:10;6.6;80.6
38221;DHT22;24023;51.280;7.148;2023-02-01T23:20:11;6.3;82.7
38221;DHT22;24023;51.280;7.148;2023-02-01T23:25:08;6.3;80.2
38221;DHT22;24023;51.280;7.148;2023-02-01T23:30:10;6.3;80.4
38221;DHT22;24023;51.280;7.148;2023-02-01T23:35:07;6.3;80.4
38221;DHT22;24023;51.280;7.148;2023-02-01T23:40:09;6.0;81.5
38221;DHT22;24023;51.280;7.148;2023-02-01T23:45:11;6.0;81.5
38221;DHT22;24023;51.280;7.148;2023-02-01T23:50:08;6.6;81.9
38221;DHT22;24023;51.280;7.148;2023-02-01T23:55:06;6.6;81.9
